createdAt,value
2022-08-05T00:01:36.078Z,0.65
2022-08-05T00:04:18.742Z,0.60
2022-08-05T00:06:51.656Z,0.95
2022-08-05T00:09:20.434Z,0.50
2022-08-05T00:11:49.423Z,1.02
2022-08-05T00:14:27.855Z,0.98
2022-08-05T00:16:58.149Z,1.23
2022-08-05T00:19:33.421Z,1.23
2022-08-05T00:22:11.209Z,1.60
2022-08-05T00:24:42.417Z,1.25
2022-08-05T00:27:14.185Z,1.95
2022-08-05T00:29:45.270Z,1.52
2022-08-05T00:32:15.329Z,1.10
2022-08-05T00:35:05.710Z,1.65
2022-08-05T00:37:35.420Z,1.30
2022-08-05T00:40:26.682Z,1.60
2022-08-05T00:42:58.624Z,1.67
2022-08-05T00:45:37.804Z,1.65
2022-08-05T00:48:07.197Z,1.38
2022-08-05T00:50:37.223Z,1.70
2022-08-05T00:53:09.620Z,2.38
2022-08-05T00:55:44.857Z,1.83
2022-08-05T01:00:42.549Z,1.88
2022-08-05T01:03:22.188Z,1.27
2022-08-05T01:05:54.432Z,1.58
2022-08-05T01:08:31.622Z,1.52
2022-08-05T01:11:14.936Z,1.55
2022-08-05T01:14:01.674Z,2.03
2022-08-05T01:16:34.946Z,1.88
2022-08-05T01:19:14.347Z,1.63
2022-08-05T01:24:47.670Z,1.55
2022-08-05T01:27:33.081Z,2.00
2022-08-05T01:30:05.734Z,1.80
2022-08-05T01:32:48.358Z,2.10
2022-08-05T01:35:51.216Z,1.20
2022-08-05T01:38:14.579Z,1.70
2022-08-05T01:40:56.542Z,1.38
2022-08-05T01:43:26.172Z,1.20
2022-08-05T01:45:57.320Z,1.33
2022-08-05T01:48:27.026Z,1.23
2022-08-05T01:50:57.504Z,1.73
2022-08-05T01:53:54.588Z,1.00
2022-08-05T01:58:11.072Z,1.45
2022-08-05T01:59:12.650Z,1.33
2022-08-05T02:01:46.177Z,1.45
2022-08-05T02:04:17.511Z,1.20
2022-08-05T02:06:45.835Z,1.30
2022-08-05T02:09:16.461Z,1.70
2022-08-05T02:11:52.818Z,1.60
2022-08-05T02:14:27.983Z,1.88
2022-08-05T02:17:05.081Z,1.10
2022-08-05T02:19:47.446Z,1.50
2022-08-05T02:22:26.560Z,0.82
2022-08-05T02:25:13.106Z,1.23
2022-08-05T02:27:58.634Z,1.25
2022-08-05T02:30:34.294Z,1.13
2022-08-05T02:33:06.694Z,1.42
2022-08-05T02:35:38.533Z,1.08
2022-08-05T02:38:20.035Z,1.80
2022-08-05T02:40:54.921Z,1.02
2022-08-05T02:43:27.313Z,1.02
2022-08-05T02:45:57.768Z,0.88
2022-08-05T02:48:31.903Z,1.05
2022-08-05T02:51:01.332Z,0.90
2022-08-05T02:56:15.644Z,1.40
2022-08-05T02:58:51.643Z,1.27
2022-08-05T03:01:27.144Z,1.15
2022-08-05T03:04:02.720Z,1.10
2022-08-05T03:06:55.890Z,1.02
2022-08-05T03:09:27.150Z,1.30
2022-08-05T03:12:05.699Z,1.15
2022-08-05T03:14:33.757Z,1.30
2022-08-05T03:17:05.061Z,0.93
2022-08-05T03:19:38.236Z,2.10
2022-08-05T03:22:16.023Z,1.23
2022-08-05T03:24:47.247Z,1.13
2022-08-05T03:27:19.679Z,1.15
2022-08-05T03:30:07.536Z,1.20
2022-08-05T03:32:36.817Z,1.48
2022-08-05T03:35:07.399Z,1.08
2022-08-05T03:37:45.709Z,1.15
2022-08-05T03:40:15.402Z,1.40
2022-08-05T03:42:53.059Z,1.17
2022-08-05T03:45:23.549Z,1.10
2022-08-05T03:47:57.219Z,1.00
2022-08-05T03:50:34.619Z,1.20
2022-08-05T03:55:51.626Z,1.95
2022-08-05T03:56:11.922Z,1.35
2022-08-05T03:58:47.795Z,1.27
2022-08-05T04:01:21.965Z,1.08
2022-08-05T04:04:05.383Z,1.60
2022-08-05T04:06:47.424Z,1.30
2022-08-05T04:09:25.889Z,1.10
2022-08-05T04:11:56.586Z,1.27
2022-08-05T04:14:29.733Z,0.95
2022-08-05T04:17:02.966Z,1.35
2022-08-05T04:19:31.383Z,1.10
2022-08-05T04:22:09.205Z,1.27
2022-08-05T04:24:43.939Z,0.95
2022-08-05T04:27:14.191Z,1.55
2022-08-05T04:29:43.784Z,1.02
2022-08-05T04:32:12.083Z,0.85
2022-08-05T04:34:43.336Z,0.80
2022-08-05T04:37:13.133Z,1.15
2022-08-05T04:42:10.317Z,1.15
2022-08-05T04:44:39.254Z,1.17
2022-08-05T04:47:09.458Z,1.42
2022-08-05T04:50:01.770Z,1.25
2022-08-05T04:52:29.382Z,1.10
2022-08-05T04:55:14.423Z,1.10
2022-08-05T04:57:47.690Z,1.17
2022-08-05T05:00:17.126Z,1.33
2022-08-05T05:02:45.309Z,1.35
2022-08-05T05:05:17.009Z,0.80
2022-08-05T05:08:02.419Z,1.10
2022-08-05T05:10:33.210Z,1.38
2022-08-05T05:13:04.014Z,0.93
2022-08-05T05:15:56.169Z,1.35
2022-08-05T05:18:31.087Z,1.30
2022-08-05T05:21:03.343Z,1.77
2022-08-05T05:24:02.088Z,0.98
2022-08-05T05:26:28.325Z,0.93
2022-08-05T05:34:02.470Z,1.88
2022-08-05T05:36:31.916Z,1.13
2022-08-05T05:39:03.532Z,1.13
2022-08-05T05:41:40.897Z,1.50
2022-08-05T05:44:35.793Z,1.13
2022-08-05T05:47:04.274Z,0.75
2022-08-05T05:49:33.060Z,0.57
2022-08-05T05:52:07.227Z,1.30
2022-08-05T05:54:51.091Z,1.00
2022-08-05T05:57:20.382Z,1.42
2022-08-05T05:59:49.161Z,1.40
2022-08-05T06:02:36.696Z,1.00
2022-08-05T06:05:14.675Z,0.80
2022-08-05T06:07:57.790Z,0.80
2022-08-05T06:10:36.729Z,1.25
2022-08-05T06:13:06.343Z,0.60
2022-08-05T06:16:27.361Z,1.17
2022-08-05T06:18:31.191Z,1.13
2022-08-05T06:21:00.531Z,1.08
2022-08-05T06:23:43.542Z,1.00
2022-08-05T06:26:21.330Z,0.90
2022-08-05T06:28:52.391Z,1.27
2022-08-05T06:31:22.066Z,1.00
2022-08-05T06:34:07.263Z,0.77
2022-08-05T06:36:56.871Z,1.20
2022-08-05T06:39:27.250Z,1.35
2022-08-05T06:41:59.278Z,0.70
2022-08-05T06:44:27.844Z,0.80
2022-08-05T06:46:56.471Z,1.03
2022-08-05T06:50:00.025Z,1.00
2022-08-05T06:52:37.104Z,0.60
2022-08-05T06:55:02.403Z,0.50
2022-08-05T06:58:03.004Z,0.80
2022-08-05T07:00:24.772Z,1.10
2022-08-05T07:02:54.369Z,1.08
2022-08-05T07:05:36.939Z,0.75
2022-08-05T07:08:10.013Z,0.77
2022-08-05T07:10:39.420Z,0.70
2022-08-05T07:13:59.101Z,0.70
2022-08-05T07:17:59.396Z,0.85
2022-08-05T07:20:23.121Z,0.90
2022-08-05T07:22:22.438Z,0.93
2022-08-05T07:24:57.586Z,0.85
2022-08-05T07:27:27.569Z,1.23
2022-08-05T07:30:25.452Z,0.80
2022-08-05T07:32:58.845Z,0.80
2022-08-05T07:36:04.333Z,0.70
2022-08-05T07:38:33.561Z,0.98
2022-08-05T07:42:07.173Z,0.70
2022-08-05T07:43:55.135Z,1.05
2022-08-05T07:46:27.432Z,0.70
2022-08-05T07:49:02.857Z,1.00
2022-08-05T07:51:37.207Z,0.82
2022-08-05T07:54:09.933Z,0.70
2022-08-05T07:56:39.319Z,0.57
2022-08-05T07:59:31.007Z,0.63
2022-08-05T08:02:15.860Z,0.68
2022-08-05T08:04:46.796Z,0.80
2022-08-05T08:07:15.618Z,1.25
2022-08-05T08:09:44.013Z,0.50
2022-08-05T08:12:33.266Z,0.80
2022-08-05T08:15:02.067Z,0.63
2022-08-05T08:20:22.670Z,0.45
2022-08-05T08:22:53.632Z,0.50
2022-08-05T08:25:27.126Z,0.68
2022-08-05T08:28:18.880Z,0.43
2022-08-05T08:31:01.142Z,0.52
2022-08-05T08:33:30.639Z,0.65
2022-08-05T08:36:38.779Z,0.73
2022-08-05T08:38:57.059Z,0.57
2022-08-05T08:41:52.144Z,0.40
2022-08-05T08:45:23.002Z,0.57
2022-08-05T08:47:47.534Z,0.73
2022-08-05T08:50:14.162Z,0.63
2022-08-05T08:52:53.423Z,0.80
2022-08-05T08:56:01.771Z,0.85
2022-08-05T08:58:12.832Z,0.50
2022-08-05T09:00:44.643Z,1.00
2022-08-05T09:03:16.037Z,0.70
2022-08-05T09:06:08.923Z,0.50
2022-08-05T09:08:40.392Z,0.80
2022-08-05T09:11:12.122Z,0.95
2022-08-05T09:14:10.313Z,0.73
2022-08-05T09:16:31.550Z,0.73
2022-08-05T09:18:59.738Z,1.00
2022-08-05T09:22:23.624Z,0.80
2022-08-05T09:24:18.375Z,0.77
2022-08-05T09:26:51.740Z,0.47
2022-08-05T09:29:20.641Z,0.55
2022-08-05T09:32:41.296Z,0.40
2022-08-05T09:34:54.877Z,1.00
2022-08-05T09:38:12.731Z,0.70
2022-08-05T09:40:32.091Z,0.90
2022-08-05T09:43:01.264Z,0.70
2022-08-05T09:46:07.802Z,0.82
2022-08-05T09:48:28.557Z,0.75
2022-08-05T09:51:00.745Z,0.70
2022-08-05T09:53:54.883Z,0.40
2022-08-05T09:56:26.279Z,0.50
2022-08-05T09:59:04.088Z,0.63
2022-08-05T10:01:35.088Z,0.68
2022-08-05T10:04:10.651Z,0.60
2022-08-05T10:06:41.400Z,0.70
2022-08-05T10:09:28.005Z,0.63
2022-08-05T10:12:30.671Z,0.88
2022-08-05T10:15:16.956Z,0.85
2022-08-05T10:18:07.996Z,0.60
2022-08-05T10:20:38.496Z,0.55
2022-08-05T10:23:08.970Z,0.50
2022-08-05T10:25:57.294Z,0.85
2022-08-05T10:28:29.197Z,0.60
2022-08-05T10:32:51.959Z,0.70
2022-08-05T10:33:52.370Z,1.35
2022-08-05T10:36:23.493Z,0.57
2022-08-05T10:38:58.239Z,0.55
2022-08-05T10:41:46.714Z,0.57
2022-08-05T10:46:51.055Z,0.70
2022-08-05T10:49:26.757Z,0.70
2022-08-05T10:52:00.357Z,0.80
2022-08-05T10:54:56.605Z,0.60
2022-08-05T10:57:33.821Z,0.60
2022-08-05T11:00:19.190Z,0.80
2022-08-05T11:03:24.397Z,0.75
2022-08-05T11:06:16.276Z,0.60
2022-08-05T11:09:39.511Z,0.68
2022-08-05T11:12:50.834Z,0.85
2022-08-05T11:16:00.895Z,0.70
2022-08-05T11:18:29.939Z,0.68
2022-08-05T11:20:59.100Z,0.70
2022-08-05T11:23:33.401Z,0.90
2022-08-05T11:26:32.242Z,0.80
2022-08-05T11:29:12.076Z,0.68
2022-08-05T11:31:54.064Z,0.60
2022-08-05T11:34:38.614Z,0.90
2022-08-05T11:38:29.156Z,0.73
2022-08-05T11:40:02.790Z,0.52
2022-08-05T11:42:37.762Z,0.63
2022-08-05T11:45:23.534Z,0.80
2022-08-05T11:47:58.841Z,0.82
2022-08-05T11:50:27.532Z,0.60
2022-08-05T11:52:58.232Z,0.63
2022-08-05T11:55:31.646Z,0.68
2022-08-05T11:58:09.615Z,0.63
2022-08-05T12:00:44.165Z,0.70
2022-08-05T12:03:28.875Z,1.27
2022-08-05T12:06:06.551Z,0.80
2022-08-05T12:08:51.046Z,0.80
2022-08-05T12:11:21.740Z,1.02
2022-08-05T12:13:58.672Z,0.82
2022-08-05T12:16:32.745Z,0.70
2022-08-05T12:19:08.341Z,0.77
2022-08-05T12:21:43.032Z,0.57
2022-08-05T12:24:14.074Z,0.82
2022-08-05T12:26:48.405Z,0.93
2022-08-05T12:29:22.979Z,1.15
2022-08-05T12:31:54.750Z,0.75
2022-08-05T12:34:28.124Z,0.60
2022-08-05T12:36:58.090Z,0.70
2022-08-05T12:39:27.981Z,1.38
2022-08-05T12:42:03.889Z,0.70
2022-08-05T12:47:04.674Z,1.00
2022-08-05T12:50:02.133Z,0.75
2022-08-05T12:52:38.654Z,0.68
2022-08-05T12:55:23.268Z,0.52
2022-08-05T12:58:48.421Z,0.77
2022-08-05T13:02:03.461Z,0.80
2022-08-05T13:03:41.380Z,0.85
2022-08-05T13:06:14.303Z,0.60
2022-08-05T13:08:51.583Z,0.70
2022-08-05T13:12:02.258Z,1.08
2022-08-05T13:14:19.447Z,0.77
2022-08-05T13:16:54.822Z,0.57
2022-08-05T13:19:51.982Z,1.00
2022-08-05T13:22:29.378Z,0.70
2022-08-05T13:25:05.187Z,1.08
2022-08-05T13:27:38.711Z,0.95
2022-08-05T13:30:33.561Z,0.63
2022-08-05T13:33:01.203Z,0.75
2022-08-05T13:35:42.917Z,1.00
2022-08-05T13:38:30.179Z,1.20
2022-08-05T13:41:02.733Z,0.77
2022-08-05T13:43:44.130Z,1.08
2022-08-05T13:46:16.254Z,0.93
2022-08-05T13:48:57.663Z,0.80
2022-08-05T13:51:40.156Z,0.85
2022-08-05T13:54:12.473Z,0.80
2022-08-05T13:56:45.084Z,1.23
2022-08-05T13:59:21.122Z,0.90
2022-08-05T14:01:56.676Z,1.08
2022-08-05T14:04:49.422Z,0.80
2022-08-05T14:07:26.042Z,1.08
2022-08-05T14:10:10.707Z,1.02
2022-08-05T14:12:39.380Z,1.33
2022-08-05T14:16:07.071Z,1.20
2022-08-05T14:18:00.754Z,1.15
2022-08-05T14:20:29.645Z,1.02
2022-08-05T14:23:00.009Z,0.75
2022-08-05T14:25:30.054Z,0.90
2022-08-05T14:27:59.050Z,0.98
2022-08-05T14:30:27.844Z,1.00
2022-08-05T14:32:57.134Z,0.88
2022-08-05T14:35:36.244Z,0.90
2022-08-05T14:38:27.904Z,1.30
2022-08-05T14:41:06.918Z,0.82
2022-08-05T14:43:58.935Z,1.17
2022-08-05T14:46:29.860Z,1.02
2022-08-05T14:49:03.655Z,1.23
2022-08-05T14:51:36.468Z,0.98
2022-08-05T14:54:28.480Z,1.65
2022-08-05T14:56:56.084Z,1.17
2022-08-05T14:59:24.238Z,1.20
2022-08-05T15:01:53.636Z,1.40
2022-08-05T15:04:23.113Z,1.17
2022-08-05T15:06:55.466Z,1.52
2022-08-05T15:09:51.462Z,1.30
2022-08-05T15:12:16.720Z,1.45
2022-08-05T15:14:49.882Z,1.90
2022-08-05T15:17:47.709Z,1.65
2022-08-05T15:22:54.417Z,1.35
2022-08-05T15:25:52.906Z,2.00
2022-08-05T15:28:15.528Z,2.28
2022-08-05T15:30:45.836Z,2.20
2022-08-05T15:33:56.853Z,2.50
2022-08-05T15:36:05.389Z,3.70
2022-08-05T15:38:40.959Z,3.22
2022-08-05T15:41:23.188Z,4.25
2022-08-05T15:43:54.964Z,3.55
2022-08-05T15:46:25.036Z,4.13
2022-08-05T15:48:58.916Z,3.45
2022-08-05T15:52:13.130Z,4.63
2022-08-05T15:54:19.105Z,4.05
2022-08-05T15:56:48.810Z,4.30
2022-08-05T15:59:20.261Z,4.53
2022-08-05T16:01:52.384Z,4.40
2022-08-05T16:04:25.360Z,3.78
2022-08-05T16:06:54.282Z,4.43
2022-08-05T16:09:24.686Z,4.00
2022-08-05T16:11:55.032Z,4.78
2022-08-05T16:14:24.648Z,4.75
2022-08-05T16:16:55.294Z,5.07
2022-08-05T16:20:03.489Z,4.80
2022-08-05T16:22:11.605Z,4.30
2022-08-05T16:24:51.715Z,3.58
2022-08-05T16:27:32.316Z,3.72
2022-08-05T16:30:26.337Z,3.30
2022-08-05T16:32:55.319Z,2.83
2022-08-05T16:35:24.848Z,2.38
2022-08-05T16:38:15.233Z,2.58
2022-08-05T16:40:47.715Z,2.20
2022-08-05T16:43:23.470Z,2.25
2022-08-05T16:46:03.550Z,2.20
2022-08-05T16:48:37.505Z,1.98
2022-08-05T16:51:09.480Z,2.55
2022-08-05T16:54:04.086Z,2.00
2022-08-05T16:56:33.594Z,1.50
2022-08-05T16:59:08.072Z,2.10
2022-08-05T17:01:53.283Z,1.13
2022-08-05T17:04:26.446Z,1.55
2022-08-05T17:07:00.127Z,1.65
2022-08-05T17:09:29.828Z,1.10
2022-08-05T17:11:59.796Z,0.90
2022-08-05T17:14:36.756Z,0.90
2022-08-05T17:17:14.465Z,1.20
2022-08-05T17:19:46.115Z,0.80
2022-08-05T17:22:24.998Z,1.10
2022-08-05T17:24:57.992Z,0.85
2022-08-05T17:27:33.731Z,0.82
2022-08-05T17:30:11.884Z,0.90
2022-08-05T17:32:46.796Z,0.80
2022-08-05T17:35:20.878Z,0.85
2022-08-05T17:37:49.419Z,0.50
2022-08-05T17:40:22.611Z,0.68
2022-08-05T17:42:52.906Z,0.40
2022-08-05T17:45:38.007Z,0.57
2022-08-05T17:48:08.614Z,0.57
2022-08-05T17:50:36.950Z,0.88
2022-08-05T17:53:08.338Z,0.30
2022-08-05T17:55:37.469Z,0.20
2022-08-05T17:58:09.838Z,0.30
2022-08-05T18:00:45.252Z,0.43
2022-08-05T18:03:56.525Z,0.40
2022-08-05T18:06:11.110Z,0.50
2022-08-05T18:08:44.854Z,0.47
2022-08-05T18:11:24.736Z,0.40
2022-08-05T18:14:04.386Z,0.55
2022-08-05T18:16:43.763Z,0.50
2022-08-05T18:19:23.104Z,0.70
2022-08-05T18:22:09.777Z,0.70
2022-08-05T18:24:40.257Z,0.40
2022-08-05T18:27:18.185Z,0.50
2022-08-05T18:29:53.699Z,0.32
2022-08-05T18:32:27.652Z,0.60
2022-08-05T18:34:56.906Z,0.40
2022-08-05T18:37:34.756Z,0.50
2022-08-05T18:41:50.639Z,0.30
2022-08-05T18:42:58.812Z,0.40
2022-08-05T18:45:41.526Z,0.38
2022-08-05T18:48:17.419Z,0.55
2022-08-05T18:52:02.949Z,0.30
2022-08-05T18:54:05.486Z,0.30
2022-08-05T18:56:33.956Z,0.60
2022-08-05T18:59:02.788Z,0.15
2022-08-05T19:01:58.194Z,0.20
2022-08-05T19:04:29.303Z,0.30
2022-08-05T19:06:57.615Z,0.30
2022-08-05T19:09:25.791Z,0.50
2022-08-05T19:12:00.516Z,0.50
2022-08-05T19:14:37.740Z,0.40
2022-08-05T19:17:18.297Z,0.40
2022-08-05T19:19:48.884Z,0.30
2022-08-05T19:22:17.780Z,0.50
2022-08-05T19:24:54.482Z,0.30
2022-08-05T19:27:30.215Z,0.57
2022-08-05T19:29:59.340Z,0.40
2022-08-05T19:32:27.911Z,0.50
2022-08-05T19:34:58.075Z,0.50
2022-08-05T19:37:35.145Z,0.35
2022-08-05T19:40:15.756Z,0.40
2022-08-05T19:43:04.617Z,0.45
2022-08-05T19:45:36.428Z,0.15
2022-08-05T19:48:06.217Z,0.30
2022-08-05T19:50:36.655Z,0.50
2022-08-05T19:53:09.628Z,0.40
2022-08-05T19:56:14.804Z,0.40
2022-08-05T19:58:29.823Z,0.50
2022-08-05T20:00:58.397Z,0.65
2022-08-05T20:03:38.842Z,0.40
2022-08-05T20:06:15.592Z,0.40
2022-08-05T20:08:47.579Z,0.30
2022-08-05T20:11:18.077Z,0.20
2022-08-05T20:13:58.349Z,0.47
2022-08-05T20:16:27.311Z,0.40
2022-08-05T20:18:55.851Z,0.30
2022-08-05T20:21:25.606Z,0.40
2022-08-05T20:23:53.783Z,0.60
2022-08-05T20:26:25.620Z,0.50
2022-08-05T20:28:56.280Z,0.40
2022-08-05T20:31:36.950Z,0.35
2022-08-05T20:34:10.126Z,0.50
2022-08-05T20:36:43.527Z,0.38
2022-08-05T20:39:13.061Z,0.32
2022-08-05T20:44:18.548Z,0.30
2022-08-05T20:46:57.701Z,0.50
2022-08-05T20:49:26.274Z,0.40
2022-08-05T20:51:57.651Z,0.20
2022-08-05T20:54:55.028Z,0.38
2022-08-05T20:57:41.835Z,0.43
2022-08-05T21:00:20.345Z,0.57
2022-08-05T21:02:57.729Z,0.30
2022-08-05T21:05:37.994Z,0.30
2022-08-05T21:08:16.200Z,0.28
2022-08-05T21:10:48.970Z,0.73
2022-08-05T21:13:36.711Z,0.22
2022-08-05T21:16:06.593Z,0.50
2022-08-05T21:18:34.639Z,0.47
2022-08-05T21:21:04.248Z,0.47
2022-08-05T21:23:37.362Z,0.50
2022-08-05T21:26:14.549Z,0.70
2022-08-05T21:28:47.890Z,0.28
2022-08-05T21:31:19.311Z,0.52
2022-08-05T21:33:49.582Z,0.30
2022-08-05T21:36:19.407Z,0.30
2022-08-05T21:38:57.421Z,0.50
2022-08-05T21:41:34.019Z,0.30
2022-08-05T21:44:04.380Z,0.13
2022-08-05T21:46:34.654Z,0.47
2022-08-05T21:49:07.273Z,0.57
2022-08-05T21:52:22.552Z,0.47
2022-08-05T21:54:27.870Z,0.35
2022-08-05T21:57:15.408Z,0.28
2022-08-05T22:00:02.900Z,0.30
2022-08-05T22:02:41.604Z,0.30
2022-08-05T22:05:11.390Z,0.17
2022-08-05T22:07:58.108Z,0.45
2022-08-05T22:10:28.726Z,0.40
2022-08-05T22:12:59.169Z,0.52
2022-08-05T22:16:02.600Z,0.52
2022-08-05T22:18:25.958Z,0.35
2022-08-05T22:20:54.386Z,0.55
2022-08-05T22:24:02.509Z,0.40
2022-08-05T22:26:49.644Z,0.22
2022-08-05T22:29:26.231Z,0.43
2022-08-05T22:31:59.721Z,0.45
2022-08-05T22:34:32.063Z,0.50
2022-08-05T22:37:01.111Z,0.45
2022-08-05T22:39:33.956Z,0.50
2022-08-05T22:42:11.548Z,0.77
2022-08-05T22:44:42.483Z,0.47
2022-08-05T22:47:29.950Z,0.30
2022-08-05T22:50:20.986Z,0.45
2022-08-05T22:52:49.111Z,0.45
2022-08-05T22:55:19.150Z,0.43
2022-08-05T22:57:50.087Z,0.45
2022-08-05T23:00:20.756Z,0.50
2022-08-05T23:02:50.489Z,0.28
2022-08-05T23:05:19.094Z,0.25
2022-08-05T23:07:51.323Z,0.52
2022-08-05T23:10:20.932Z,0.45
2022-08-05T23:12:55.542Z,0.50
2022-08-05T23:15:26.998Z,0.20
2022-08-05T23:18:00.466Z,0.43
2022-08-05T23:20:29.958Z,0.45
2022-08-05T23:22:58.733Z,0.40
2022-08-05T23:25:53.688Z,0.45
2022-08-05T23:28:17.269Z,0.22
2022-08-05T23:30:53.446Z,0.52
2022-08-05T23:33:26.452Z,0.20
2022-08-05T23:36:13.524Z,0.35
2022-08-05T23:41:12.114Z,0.17
2022-08-05T23:44:05.930Z,0.25
2022-08-05T23:49:00.512Z,0.50
2022-08-05T23:51:52.519Z,0.30
2022-08-05T23:54:25.468Z,0.55
2022-08-05T23:56:55.963Z,0.43
